createdAt,value
2019-06-20T00:01:12.211Z,99.90
2019-06-20T00:03:42.035Z,99.90
2019-06-20T00:06:11.927Z,99.90
2019-06-20T00:08:42.158Z,99.90
2019-06-20T00:11:12.099Z,99.90
2019-06-20T00:13:41.981Z,99.90
2019-06-20T00:16:12.095Z,99.90
2019-06-20T00:18:41.906Z,99.90
2019-06-20T00:21:11.723Z,99.90
2019-06-20T00:23:41.624Z,99.90
2019-06-20T00:26:11.773Z,99.90
2019-06-20T00:28:41.579Z,99.90
2019-06-20T00:31:11.452Z,99.90
2019-06-20T00:33:41.259Z,99.90
2019-06-20T00:36:11.122Z,99.90
2019-06-20T00:38:40.924Z,99.90
2019-06-20T00:41:10.748Z,99.90
2019-06-20T00:43:40.570Z,99.90
2019-06-20T00:46:10.386Z,99.90
2019-06-20T00:48:40.519Z,99.90
2019-06-20T00:51:10.600Z,99.90
2019-06-20T00:53:40.670Z,99.90
2019-06-20T00:56:10.736Z,99.90
2019-06-20T00:58:40.813Z,99.90
2019-06-20T01:01:10.809Z,99.90
2019-06-20T01:03:40.861Z,99.90
2019-06-20T01:06:10.683Z,99.90
2019-06-20T01:08:40.743Z,99.90
2019-06-20T01:11:10.584Z,99.90
2019-06-20T01:13:40.737Z,99.90
2019-06-20T01:16:10.814Z,99.90
2019-06-20T01:18:40.658Z,99.90
2019-06-20T01:21:10.582Z,99.90
2019-06-20T01:23:40.708Z,99.90
2019-06-20T01:26:10.911Z,99.90
2019-06-20T01:28:40.744Z,99.90
2019-06-20T01:31:10.563Z,99.90
2019-06-20T01:33:40.653Z,99.90
2019-06-20T01:36:10.483Z,99.90
2019-06-20T01:38:40.299Z,99.90
2019-06-20T01:41:10.433Z,99.90
2019-06-20T01:43:49.977Z,99.90
2019-06-20T01:46:11.871Z,99.90
2019-06-20T01:48:41.715Z,99.90
2019-06-20T01:51:11.921Z,99.90
2019-06-20T01:53:41.769Z,99.90
2019-06-20T01:56:11.834Z,99.90
2019-06-20T01:58:41.663Z,99.90
2019-06-20T02:01:11.728Z,99.90
2019-06-20T02:03:41.576Z,99.90
2019-06-20T02:06:11.633Z,99.90
2019-06-20T02:08:41.699Z,99.90
2019-06-20T02:11:11.547Z,99.90
2019-06-20T02:13:41.421Z,99.90
2019-06-20T02:16:11.393Z,99.90
2019-06-20T02:18:41.197Z,99.90
2019-06-20T02:21:11.032Z,99.90
2019-06-20T02:23:41.162Z,99.90
2019-06-20T02:26:11.042Z,99.90
2019-06-20T02:28:40.871Z,99.90
2019-06-20T02:31:10.760Z,99.90
2019-06-20T02:33:40.604Z,99.90
2019-06-20T02:36:10.726Z,99.90
2019-06-20T02:38:40.806Z,99.90
2019-06-20T02:41:11.203Z,99.90
2019-06-20T02:43:41.024Z,99.90
2019-06-20T02:46:11.235Z,99.90
2019-06-20T02:48:41.061Z,99.90
2019-06-20T02:51:11.119Z,99.90
2019-06-20T02:53:40.933Z,99.90
2019-06-20T02:56:11.000Z,99.90
2019-06-20T02:58:41.047Z,99.90
2019-06-20T03:01:11.130Z,99.90
2019-06-20T03:03:41.209Z,99.90
2019-06-20T03:06:11.173Z,99.90
2019-06-20T03:08:41.251Z,99.90
2019-06-20T03:11:11.379Z,99.90
2019-06-20T03:13:41.465Z,99.90
2019-06-20T03:16:11.280Z,99.90
2019-06-20T03:18:41.100Z,99.90
2019-06-20T03:21:10.992Z,99.90
2019-06-20T03:23:40.945Z,99.90
2019-06-20T03:26:11.000Z,99.90
2019-06-20T03:28:41.070Z,99.90
2019-06-20T03:31:11.276Z,99.90
2019-06-20T03:33:41.335Z,99.90
2019-06-20T03:36:11.143Z,99.90
2019-06-20T03:38:40.964Z,99.90
2019-06-20T03:41:10.786Z,99.90
2019-06-20T03:43:40.596Z,99.90
2019-06-20T03:46:10.414Z,99.90
2019-06-20T03:48:41.220Z,99.90
2019-06-20T03:51:11.138Z,99.90
2019-06-20T03:53:41.008Z,99.90
2019-06-20T03:56:11.057Z,99.90
2019-06-20T03:58:40.879Z,99.90
2019-06-20T04:01:10.763Z,99.90
2019-06-20T04:03:40.714Z,99.90
2019-06-20T04:06:10.565Z,99.90
2019-06-20T04:08:40.404Z,99.90
2019-06-20T04:11:10.601Z,99.90
2019-06-20T04:13:40.428Z,99.90
2019-06-20T04:16:10.251Z,99.90
2019-06-20T04:18:40.091Z,99.90
2019-06-20T04:21:09.910Z,99.90
2019-06-20T04:23:40.785Z,99.90
2019-06-20T04:26:10.607Z,99.90
2019-06-20T04:28:40.453Z,99.90
2019-06-20T04:31:10.499Z,99.90
2019-06-20T04:33:40.390Z,99.90
2019-06-20T04:36:10.231Z,99.90
2019-06-20T04:38:40.061Z,99.90
2019-06-20T04:41:10.124Z,99.90
2019-06-20T04:43:40.231Z,99.90
2019-06-20T04:46:11.943Z,99.90
2019-06-20T04:48:41.828Z,99.90
2019-06-20T04:51:11.959Z,99.90
2019-06-20T04:53:41.774Z,99.90
2019-06-20T04:56:11.672Z,99.90
2019-06-20T04:58:41.727Z,99.90
2019-06-20T05:01:11.789Z,99.90
2019-06-20T05:03:41.619Z,99.90
2019-06-20T05:06:11.455Z,99.90
2019-06-20T05:08:41.265Z,99.90
2019-06-20T05:11:11.333Z,99.90
2019-06-20T05:13:41.145Z,99.90
2019-06-20T05:16:11.024Z,99.90
2019-06-20T05:18:40.855Z,99.90
2019-06-20T05:21:10.752Z,99.90
2019-06-20T05:23:41.634Z,99.90
2019-06-20T05:26:11.597Z,99.90
2019-06-20T05:28:41.564Z,99.90
2019-06-20T05:31:11.426Z,99.90
2019-06-20T05:33:41.268Z,99.90
2019-06-20T05:36:11.363Z,99.90
2019-06-20T05:38:41.271Z,99.90
2019-06-20T05:41:11.093Z,99.90
2019-06-20T05:43:41.163Z,99.90
2019-06-20T05:46:11.318Z,99.90
2019-06-20T05:48:41.475Z,99.90
2019-06-20T05:51:11.299Z,99.90
2019-06-20T05:53:41.191Z,99.90
2019-06-20T05:56:10.991Z,99.90
2019-06-20T05:58:40.806Z,99.90
2019-06-20T06:01:11.855Z,99.90
2019-06-20T06:03:42.980Z,99.90
2019-06-20T06:06:12.812Z,99.90
2019-06-20T06:08:42.882Z,99.90
2019-06-20T06:11:12.736Z,96.80
2019-06-20T06:13:42.549Z,93.50
2019-06-20T06:16:25.661Z,93.40
2019-06-20T06:18:44.435Z,90.80
2019-06-20T06:21:14.553Z,92.30
2019-06-20T06:23:44.755Z,95.90
2019-06-20T06:26:14.821Z,99.40
2019-06-20T06:28:44.649Z,99.90
2019-06-20T06:31:14.536Z,99.90
2019-06-20T06:33:44.721Z,99.90
2019-06-20T06:36:14.595Z,99.90
2019-06-20T06:38:44.407Z,99.90
2019-06-20T06:41:14.396Z,99.90
2019-06-20T06:43:44.628Z,99.90
2019-06-20T06:46:14.738Z,99.90
2019-06-20T06:48:44.878Z,99.90
2019-06-20T06:51:14.968Z,99.90
2019-06-20T06:53:45.105Z,99.90
2019-06-20T06:56:14.950Z,95.80
2019-06-20T06:58:44.844Z,94.30
2019-06-20T07:01:14.807Z,93.80
2019-06-20T07:03:44.888Z,93.60
2019-06-20T07:06:15.098Z,91.90
2019-06-20T07:08:45.239Z,91.00
2019-06-20T07:11:15.373Z,95.60
2019-06-20T07:13:46.201Z,93.30
2019-06-20T07:16:16.020Z,94.40
2019-06-20T07:18:46.109Z,92.20
2019-06-20T07:21:15.953Z,93.30
2019-06-20T07:23:45.852Z,93.70
2019-06-20T07:26:15.751Z,95.10
2019-06-20T07:28:45.588Z,95.70
2019-06-20T07:31:15.497Z,95.30
2019-06-20T07:33:45.414Z,95.40
2019-06-20T07:36:15.247Z,96.00
2019-06-20T07:38:45.334Z,95.70
2019-06-20T07:41:16.144Z,96.80
2019-06-20T07:43:46.296Z,98.60
2019-06-20T07:46:16.130Z,99.30
2019-06-20T07:48:45.955Z,99.70
2019-06-20T07:51:16.050Z,99.70
2019-06-20T07:53:46.164Z,99.60
2019-06-20T07:56:15.992Z,99.90
2019-06-20T07:58:46.079Z,99.60
2019-06-20T08:01:15.937Z,99.90
2019-06-20T08:03:45.760Z,99.10
2019-06-20T08:06:15.841Z,98.10
2019-06-20T08:08:45.728Z,99.00
2019-06-20T08:11:15.540Z,99.90
2019-06-20T08:13:45.427Z,99.90
2019-06-20T08:16:15.322Z,99.90
2019-06-20T08:18:45.815Z,94.50
2019-06-20T08:21:15.716Z,92.40
2019-06-20T08:23:45.540Z,91.10
2019-06-20T08:26:15.515Z,92.00
2019-06-20T08:28:45.701Z,94.00
2019-06-20T08:31:15.614Z,96.00
2019-06-20T08:33:45.512Z,97.20
2019-06-20T08:36:15.342Z,97.90
2019-06-20T08:38:45.163Z,95.70
2019-06-20T08:41:15.007Z,92.90
2019-06-20T08:43:45.316Z,94.90
2019-06-20T08:46:15.570Z,96.70
2019-06-20T08:48:45.500Z,97.90
2019-06-20T08:51:15.323Z,99.20
2019-06-20T08:53:45.696Z,99.30
2019-06-20T08:56:16.837Z,98.30
2019-06-20T08:58:46.770Z,97.50
2019-06-20T09:01:16.656Z,94.70
2019-06-20T09:03:46.799Z,92.60
2019-06-20T09:06:16.891Z,91.40
2019-06-20T09:08:46.955Z,85.90
2019-06-20T09:11:17.758Z,85.60
2019-06-20T09:13:47.857Z,81.50
2019-06-20T09:16:24.495Z,83.30
2019-06-20T09:18:49.489Z,80.80
2019-06-20T09:21:19.396Z,80.30
2019-06-20T09:23:49.522Z,80.10
2019-06-20T09:26:19.591Z,78.60
2019-06-20T09:28:51.014Z,76.40
2019-06-20T09:31:21.274Z,69.80
2019-06-20T09:33:52.326Z,72.00
2019-06-20T09:36:22.945Z,84.20
2019-06-20T09:38:53.973Z,86.80
2019-06-20T09:41:24.650Z,87.80
2019-06-20T09:43:54.560Z,90.90
2019-06-20T09:46:24.398Z,92.60
2019-06-20T09:48:55.305Z,94.00
2019-06-20T09:51:25.419Z,93.30
2019-06-20T09:53:56.349Z,91.80
2019-06-20T09:56:26.608Z,91.70
2019-06-20T09:58:58.291Z,87.50
2019-06-20T10:01:28.254Z,87.00
2019-06-20T10:03:59.380Z,87.10
2019-06-20T10:06:29.445Z,88.10
2019-06-20T10:08:59.279Z,86.30
2019-06-20T10:11:29.422Z,90.40
2019-06-20T10:13:59.522Z,90.20
2019-06-20T10:16:42.399Z,87.40
2019-06-20T10:19:01.510Z,85.30
2019-06-20T10:21:31.572Z,87.40
2019-06-20T10:24:01.660Z,85.20
2019-06-20T10:26:31.490Z,90.00
2019-06-20T10:29:01.445Z,87.50
2019-06-20T10:31:31.402Z,87.70
2019-06-20T10:34:01.226Z,86.80
2019-06-20T10:36:31.344Z,89.10
2019-06-20T10:39:01.439Z,88.60
2019-06-20T10:41:32.915Z,89.30
2019-06-20T10:44:02.737Z,91.10
2019-06-20T10:46:32.575Z,90.90
2019-06-20T10:49:02.759Z,87.20
2019-06-20T10:51:34.561Z,87.40
2019-06-20T10:54:04.754Z,86.80
2019-06-20T10:56:34.632Z,90.20
2019-06-20T10:59:04.829Z,91.00
2019-06-20T11:01:34.921Z,91.10
2019-06-20T11:04:05.402Z,91.90
2019-06-20T11:06:35.473Z,90.90
2019-06-20T11:09:09.579Z,90.50
2019-06-20T11:11:40.149Z,90.30
2019-06-20T11:14:11.435Z,88.20
2019-06-20T11:16:42.155Z,90.30
2019-06-20T11:19:13.200Z,90.60
2019-06-20T11:21:43.296Z,90.50
2019-06-20T11:24:14.439Z,90.20
2019-06-20T11:26:45.884Z,91.10
2019-06-20T11:29:16.900Z,91.40
2019-06-20T11:31:49.313Z,90.20
2019-06-20T11:34:19.548Z,90.10
2019-06-20T11:36:49.377Z,90.90
2019-06-20T11:39:19.467Z,90.20
2019-06-20T11:41:49.290Z,88.80
2019-06-20T11:44:19.433Z,88.20
2019-06-20T11:46:49.632Z,87.60
2019-06-20T11:49:19.828Z,87.40
2019-06-20T11:51:49.681Z,87.60
2019-06-20T11:54:19.912Z,89.50
2019-06-20T11:56:50.004Z,87.60
2019-06-20T11:59:19.910Z,86.80
2019-06-20T12:01:51.195Z,87.00
2019-06-20T12:04:22.390Z,85.50
2019-06-20T12:06:52.239Z,88.50
2019-06-20T12:09:22.319Z,85.30
2019-06-20T12:11:52.151Z,84.60
2019-06-20T12:14:21.962Z,84.00
2019-06-20T12:16:51.787Z,83.80
2019-06-20T12:19:21.621Z,84.40
2019-06-20T12:21:51.505Z,85.70
2019-06-20T12:24:21.410Z,85.50
2019-06-20T12:26:51.473Z,87.20
2019-06-20T12:29:21.817Z,86.90
2019-06-20T12:31:52.863Z,85.10
2019-06-20T12:34:22.807Z,85.70
2019-06-20T12:36:52.627Z,87.30
2019-06-20T12:39:22.713Z,87.20
2019-06-20T12:41:52.815Z,89.80
2019-06-20T12:44:22.940Z,90.40
2019-06-20T12:46:53.071Z,91.00
2019-06-20T12:49:24.007Z,91.30
2019-06-20T12:51:54.034Z,92.50
2019-06-20T12:54:23.877Z,92.90
2019-06-20T12:56:53.719Z,92.30
2019-06-20T12:59:23.804Z,93.30
2019-06-20T13:01:53.773Z,93.50
2019-06-20T13:04:23.584Z,93.40
2019-06-20T13:06:53.661Z,93.00
2019-06-20T13:09:24.458Z,93.00
2019-06-20T13:11:54.524Z,92.50
2019-06-20T13:14:25.635Z,93.10
2019-06-20T13:16:55.774Z,93.70
2019-06-20T13:19:25.588Z,95.60
2019-06-20T13:21:55.420Z,94.60
2019-06-20T13:24:25.402Z,94.20
2019-06-20T13:26:55.238Z,96.10
2019-06-20T13:29:25.054Z,97.60
2019-06-20T13:32:04.044Z,97.20
2019-06-20T13:34:26.752Z,98.40
2019-06-20T13:36:56.895Z,99.70
2019-06-20T13:39:26.729Z,99.30
2019-06-20T13:41:56.581Z,98.80
2019-06-20T13:44:26.723Z,99.70
2019-06-20T13:46:56.547Z,98.90
2019-06-20T13:49:26.665Z,98.10
2019-06-20T13:51:56.561Z,98.60
2019-06-20T13:54:26.667Z,98.40
2019-06-20T13:56:56.731Z,98.40
2019-06-20T13:59:26.562Z,99.10
2019-06-20T14:02:06.235Z,99.90
2019-06-20T14:04:28.481Z,99.90
2019-06-20T14:06:58.560Z,99.40
2019-06-20T14:09:28.638Z,99.90
2019-06-20T14:11:58.519Z,99.90
2019-06-20T14:14:28.610Z,99.90
2019-06-20T14:16:58.695Z,99.90
2019-06-20T14:19:28.681Z,99.90
2019-06-20T14:21:58.576Z,99.90
2019-06-20T14:24:28.655Z,99.90
2019-06-20T14:26:58.546Z,99.50
2019-06-20T14:29:28.658Z,99.90
2019-06-20T14:31:58.511Z,99.30
2019-06-20T14:34:28.340Z,98.90
2019-06-20T14:36:58.441Z,98.90
2019-06-20T14:39:28.521Z,99.70
2019-06-20T14:41:58.427Z,99.70
2019-06-20T14:44:28.509Z,99.20
2019-06-20T14:46:59.461Z,99.80
2019-06-20T14:49:29.689Z,99.20
2019-06-20T14:51:59.571Z,99.90
2019-06-20T14:54:29.425Z,98.50
2019-06-20T14:56:59.512Z,98.60
2019-06-20T14:59:29.433Z,97.80
2019-06-20T15:01:59.309Z,97.60
2019-06-20T15:04:29.253Z,97.20
2019-06-20T15:06:59.102Z,97.70
2019-06-20T15:09:28.937Z,96.40
2019-06-20T15:11:58.779Z,96.40
2019-06-20T15:14:28.844Z,96.30
2019-06-20T15:16:58.696Z,96.70
2019-06-20T15:19:28.520Z,96.50
2019-06-20T15:21:58.678Z,97.20
2019-06-20T15:24:28.761Z,97.40
2019-06-20T15:26:58.592Z,97.70
2019-06-20T15:29:28.432Z,97.50
2019-06-20T15:31:58.678Z,98.10
2019-06-20T15:34:28.823Z,97.70
2019-06-20T15:36:58.934Z,97.10
2019-06-20T15:39:28.991Z,98.20
2019-06-20T15:41:58.838Z,98.40
2019-06-20T15:44:28.665Z,98.40
2019-06-20T15:46:58.493Z,98.10
2019-06-20T15:49:28.343Z,97.60
2019-06-20T15:51:59.259Z,98.00
2019-06-20T15:54:29.196Z,97.40
2019-06-20T15:56:59.027Z,98.00
2019-06-20T15:59:28.950Z,98.20
2019-06-20T16:01:58.917Z,98.70
2019-06-20T16:04:28.809Z,99.10
2019-06-20T16:06:58.668Z,99.90
2019-06-20T16:09:28.911Z,99.90
2019-06-20T16:11:59.021Z,99.90
2019-06-20T16:14:28.878Z,99.90
2019-06-20T16:16:58.698Z,99.90
2019-06-20T16:19:29.585Z,99.90
2019-06-20T16:21:59.406Z,99.90
2019-06-20T16:24:29.264Z,99.90
2019-06-20T16:26:59.190Z,99.90
2019-06-20T16:29:29.048Z,99.90
2019-06-20T16:31:58.966Z,99.90
2019-06-20T16:34:29.269Z,99.90
2019-06-20T16:37:09.773Z,99.90
2019-06-20T16:39:30.901Z,99.90
2019-06-20T16:42:00.994Z,99.90
2019-06-20T16:44:30.906Z,99.90
2019-06-20T16:47:00.833Z,99.90
2019-06-20T16:49:30.720Z,99.90
2019-06-20T16:52:00.557Z,99.90
2019-06-20T16:54:30.462Z,99.90
2019-06-20T16:57:00.325Z,99.90
2019-06-20T16:59:30.259Z,99.90
2019-06-20T17:02:00.430Z,99.90
2019-06-20T17:04:30.339Z,99.90
2019-06-20T17:07:00.230Z,99.90
2019-06-20T17:09:30.075Z,99.90
2019-06-20T17:11:59.942Z,99.90
2019-06-20T17:14:30.014Z,99.90
2019-06-20T17:16:59.989Z,99.90
2019-06-20T17:19:29.843Z,99.90
2019-06-20T17:21:59.686Z,99.90
2019-06-20T17:24:29.792Z,99.90
2019-06-20T17:26:59.761Z,99.90
2019-06-20T17:29:29.830Z,99.90
2019-06-20T17:31:59.724Z,99.90
2019-06-20T17:34:30.529Z,99.90
2019-06-20T17:37:00.398Z,99.90
2019-06-20T17:39:30.214Z,99.90
2019-06-20T17:42:00.448Z,99.90
2019-06-20T17:44:30.564Z,99.90
2019-06-20T17:47:00.405Z,99.90
2019-06-20T17:49:30.471Z,99.90
2019-06-20T17:52:00.391Z,99.90
2019-06-20T17:54:30.593Z,99.90
2019-06-20T17:57:00.717Z,99.90
2019-06-20T17:59:30.583Z,99.90
2019-06-20T18:02:00.495Z,99.90
2019-06-20T18:04:30.447Z,99.90
2019-06-20T18:07:00.633Z,99.90
2019-06-20T18:09:30.835Z,99.90
2019-06-20T18:12:00.659Z,99.90
2019-06-20T18:14:33.875Z,99.90
2019-06-20T18:17:02.289Z,99.90
2019-06-20T18:19:32.117Z,99.90
2019-06-20T18:22:02.292Z,99.90
2019-06-20T18:24:32.429Z,99.90
2019-06-20T18:27:02.572Z,99.90
2019-06-20T18:29:32.647Z,99.90
2019-06-20T18:32:15.730Z,99.90
2019-06-20T18:35:00.876Z,99.90
2019-06-20T18:37:30.550Z,99.90
2019-06-20T18:39:49.394Z,99.90
2019-06-20T18:42:19.272Z,99.90
2019-06-20T18:44:49.105Z,99.90
2019-06-20T18:47:21.803Z,99.90
2019-06-20T18:49:50.559Z,99.90
2019-06-20T18:52:20.726Z,99.90
2019-06-20T18:54:50.799Z,99.90
2019-06-20T18:57:20.885Z,99.90
2019-06-20T18:59:51.053Z,99.90
2019-06-20T19:02:21.140Z,99.90
2019-06-20T19:04:53.508Z,99.90
2019-06-20T19:07:23.396Z,99.90
2019-06-20T19:09:53.681Z,99.90
2019-06-20T19:12:23.583Z,99.90
2019-06-20T19:14:53.416Z,99.90
2019-06-20T19:17:23.253Z,99.90
2019-06-20T19:19:53.117Z,99.90
2019-06-20T19:22:24.156Z,99.90
2019-06-20T19:24:54.012Z,99.90
2019-06-20T19:27:23.948Z,99.90
2019-06-20T19:29:53.855Z,99.90
2019-06-20T19:32:23.737Z,99.90
2019-06-20T19:35:01.783Z,99.90
2019-06-20T19:37:26.296Z,99.90
2019-06-20T19:39:56.149Z,99.90
2019-06-20T19:42:26.379Z,99.90
2019-06-20T19:44:56.234Z,99.90
2019-06-20T19:47:26.147Z,99.90
2019-06-20T19:49:56.042Z,99.90
2019-06-20T19:52:25.938Z,99.90
2019-06-20T19:54:56.015Z,99.90
2019-06-20T19:57:26.992Z,99.90
2019-06-20T19:59:56.970Z,99.90
2019-06-20T20:02:26.946Z,99.90
2019-06-20T20:04:57.196Z,99.90
2019-06-20T20:07:27.424Z,99.90
2019-06-20T20:09:57.564Z,99.90
2019-06-20T20:12:27.696Z,99.90
2019-06-20T20:14:57.561Z,99.90
2019-06-20T20:17:27.715Z,99.90
2019-06-20T20:19:57.816Z,99.90
2019-06-20T20:22:27.651Z,99.90
2019-06-20T20:24:57.734Z,99.90
2019-06-20T20:27:27.629Z,99.90
2019-06-20T20:29:57.742Z,99.90
2019-06-20T20:32:27.635Z,99.90
2019-06-20T20:34:57.526Z,99.90
2019-06-20T20:37:27.357Z,99.90
2019-06-20T20:39:57.429Z,99.90
2019-06-20T20:42:27.536Z,99.90
2019-06-20T20:44:57.723Z,99.90
2019-06-20T20:47:28.511Z,99.90
2019-06-20T20:49:58.814Z,99.90
2019-06-20T20:52:30.232Z,99.90
2019-06-20T20:55:00.140Z,99.90
2019-06-20T20:57:30.019Z,99.90
2019-06-20T21:00:01.074Z,99.90
2019-06-20T21:02:31.712Z,99.90
2019-06-20T21:05:01.822Z,99.90
2019-06-20T21:07:31.979Z,99.90
2019-06-20T21:10:02.068Z,99.90
2019-06-20T21:12:32.282Z,99.90
2019-06-20T21:15:02.384Z,99.90
2019-06-20T21:17:32.501Z,99.90
2019-06-20T21:20:02.672Z,99.90
2019-06-20T21:22:32.772Z,99.90
2019-06-20T21:25:02.803Z,99.90
2019-06-20T21:27:32.948Z,99.90
2019-06-20T21:30:02.944Z,99.90
2019-06-20T21:32:32.763Z,99.90
2019-06-20T21:35:02.659Z,99.90
2019-06-20T21:37:32.729Z,99.90
2019-06-20T21:40:02.635Z,99.90
2019-06-20T21:42:32.724Z,99.90
2019-06-20T21:45:02.611Z,99.90
2019-06-20T21:47:32.691Z,99.90
2019-06-20T21:50:02.603Z,99.90
2019-06-20T21:52:32.432Z,99.90
2019-06-20T21:55:02.559Z,99.90
2019-06-20T21:57:32.641Z,99.90
2019-06-20T22:00:02.948Z,99.90
2019-06-20T22:02:34.774Z,99.90
2019-06-20T22:05:06.657Z,99.90
2019-06-20T22:07:37.848Z,99.90
2019-06-20T22:10:08.333Z,99.90
2019-06-20T22:12:38.229Z,99.90
2019-06-20T22:15:08.388Z,99.90
2019-06-20T22:17:38.207Z,99.90
2019-06-20T22:20:08.820Z,99.90
2019-06-20T22:22:38.971Z,99.90
2019-06-20T22:25:09.732Z,99.90
2019-06-20T22:27:40.779Z,99.90
2019-06-20T22:30:15.856Z,99.90
2019-06-20T22:32:44.983Z,99.90
2019-06-20T22:35:15.021Z,99.90
2019-06-20T22:37:45.978Z,99.90
2019-06-20T22:40:16.036Z,99.90
2019-06-20T22:42:46.128Z,99.90
2019-06-20T22:45:16.337Z,99.90
2019-06-20T22:47:46.166Z,99.90
2019-06-20T22:50:16.396Z,99.90
2019-06-20T22:52:46.487Z,99.90
2019-06-20T22:55:16.556Z,99.90
2019-06-20T22:57:46.384Z,99.90
2019-06-20T23:00:16.791Z,99.90
2019-06-20T23:02:46.707Z,99.90
2019-06-20T23:05:17.234Z,99.90
2019-06-20T23:07:47.142Z,99.90
2019-06-20T23:10:18.064Z,99.90
2019-06-20T23:12:48.228Z,99.90
2019-06-20T23:15:18.694Z,99.90
2019-06-20T23:17:48.546Z,99.90
2019-06-20T23:20:18.869Z,99.90
2019-06-20T23:22:49.037Z,99.90
2019-06-20T23:25:19.208Z,99.90
2019-06-20T23:27:49.350Z,99.90
2019-06-20T23:30:19.997Z,99.90
2019-06-20T23:32:49.861Z,99.90
2019-06-20T23:35:19.910Z,99.90
2019-06-20T23:37:50.052Z,99.90
2019-06-20T23:40:21.075Z,99.90
2019-06-20T23:42:50.975Z,99.90
2019-06-20T23:45:21.326Z,99.90
2019-06-20T23:47:51.130Z,99.90
2019-06-20T23:50:21.149Z,99.90
2019-06-20T23:52:55.387Z,99.90
2019-06-20T23:55:25.283Z,99.90
2019-06-20T23:57:55.116Z,99.90
